sensor_id;sensor_type;location;lat;lon;timestamp;temperature;humidity
61398;DHT22;47267;48.130;-2.040;2023-08-20T00:00:09;24.80;58.00
61398;DHT22;47267;48.130;-2.040;2023-08-20T00:02:37;24.80;58.00
61398;DHT22;47267;48.130;-2.040;2023-08-20T00:05:03;24.80;58.00
61398;DHT22;47267;48.130;-2.040;2023-08-20T00:07:32;24.80;58.00
61398;DHT22;47267;48.130;-2.040;2023-08-20T00:09:58;24.80;57.90
61398;DHT22;47267;48.130;-2.040;2023-08-20T00:12:25;24.80;57.90
61398;DHT22;47267;48.130;-2.040;2023-08-20T00:14:59;24.70;57.90
61398;DHT22;47267;48.130;-2.040;2023-08-20T00:17:31;24.70;57.90
61398;DHT22;47267;48.130;-2.040;2023-08-20T00:19:57;24.70;57.90
61398;DHT22;47267;48.130;-2.040;2023-08-20T00:22:23;24.70;57.90
61398;DHT22;47267;48.130;-2.040;2023-08-20T00:24:53;24.70;57.90
61398;DHT22;47267;48.130;-2.040;2023-08-20T00:27:19;24.70;57.90
61398;DHT22;47267;48.130;-2.040;2023-08-20T00:29:45;24.70;57.90
61398;DHT22;47267;48.130;-2.040;2023-08-20T00:32:10;24.70;57.90
61398;DHT22;47267;48.130;-2.040;2023-08-20T00:34:36;24.60;57.90
61398;DHT22;47267;48.130;-2.040;2023-08-20T00:37:02;24.60;57.80
61398;DHT22;47267;48.130;-2.040;2023-08-20T00:39:29;24.60;57.80
61398;DHT22;47267;48.130;-2.040;2023-08-20T00:41:55;24.60;58.40
61398;DHT22;47267;48.130;-2.040;2023-08-20T00:44:21;24.60;57.90
61398;DHT22;47267;48.130;-2.040;2023-08-20T00:46:47;24.60;57.90
61398;DHT22;47267;48.130;-2.040;2023-08-20T00:49:13;24.60;57.90
61398;DHT22;47267;48.130;-2.040;2023-08-20T00:51:38;24.60;57.90
61398;DHT22;47267;48.130;-2.040;2023-08-20T00:54:04;24.60;57.90
61398;DHT22;47267;48.130;-2.040;2023-08-20T00:56:30;24.50;57.80
61398;DHT22;47267;48.130;-2.040;2023-08-20T00:58:57;24.50;57.80
61398;DHT22;47267;48.130;-2.040;2023-08-20T01:01:23;24.50;57.80
61398;DHT22;47267;48.130;-2.040;2023-08-20T01:03:48;24.50;57.80
61398;DHT22;47267;48.130;-2.040;2023-08-20T01:06:23;24.50;57.80
61398;DHT22;47267;48.130;-2.040;2023-08-20T01:09:45;24.50;57.80
61398;DHT22;47267;48.130;-2.040;2023-08-20T01:11:49;24.50;57.80
61398;DHT22;47267;48.130;-2.040;2023-08-20T01:14:17;24.50;57.80
61398;DHT22;47267;48.130;-2.040;2023-08-20T01:16:44;24.50;57.80
61398;DHT22;47267;48.130;-2.040;2023-08-20T01:19:15;24.40;57.70
61398;DHT22;47267;48.130;-2.040;2023-08-20T01:30:10;24.40;57.70
61398;DHT22;47267;48.130;-2.040;2023-08-20T01:32:37;24.40;57.70
61398;DHT22;47267;48.130;-2.040;2023-08-20T01:35:13;24.40;57.70
61398;DHT22;47267;48.130;-2.040;2023-08-20T01:37:41;24.30;57.60
61398;DHT22;47267;48.130;-2.040;2023-08-20T01:40:08;24.30;57.70
61398;DHT22;47267;48.130;-2.040;2023-08-20T01:42:40;24.30;57.70
61398;DHT22;47267;48.130;-2.040;2023-08-20T01:45:06;24.30;57.70
61398;DHT22;47267;48.130;-2.040;2023-08-20T01:47:35;24.30;57.70
61398;DHT22;47267;48.130;-2.040;2023-08-20T01:50:01;24.30;57.70
61398;DHT22;47267;48.130;-2.040;2023-08-20T01:52:26;24.30;57.70
61398;DHT22;47267;48.130;-2.040;2023-08-20T01:54:52;24.30;57.70
61398;DHT22;47267;48.130;-2.040;2023-08-20T01:57:19;24.20;57.60
61398;DHT22;47267;48.130;-2.040;2023-08-20T01:59:44;24.20;57.60
61398;DHT22;47267;48.130;-2.040;2023-08-20T02:02:10;24.20;58.20
61398;DHT22;47267;48.130;-2.040;2023-08-20T02:04:35;24.20;57.60
61398;DHT22;47267;48.130;-2.040;2023-08-20T02:07:01;24.20;57.60
61398;DHT22;47267;48.130;-2.040;2023-08-20T02:09:27;24.20;57.60
61398;DHT22;47267;48.130;-2.040;2023-08-20T02:11:53;24.20;57.60
61398;DHT22;47267;48.130;-2.040;2023-08-20T02:14:18;24.20;57.60
61398;DHT22;47267;48.130;-2.040;2023-08-20T02:16:45;24.10;57.60
61398;DHT22;47267;48.130;-2.040;2023-08-20T02:19:11;24.10;57.60
61398;DHT22;47267;48.130;-2.040;2023-08-20T02:21:37;24.10;57.60
61398;DHT22;47267;48.130;-2.040;2023-08-20T02:24:03;24.10;57.60
61398;DHT22;47267;48.130;-2.040;2023-08-20T02:26:29;24.10;57.60
61398;DHT22;47267;48.130;-2.040;2023-08-20T02:28:55;24.10;57.60
61398;DHT22;47267;48.130;-2.040;2023-08-20T02:31:20;24.00;57.50
61398;DHT22;47267;48.130;-2.040;2023-08-20T02:33:46;24.00;57.50
61398;DHT22;47267;48.130;-2.040;2023-08-20T02:36:12;24.10;57.60
61398;DHT22;47267;48.130;-2.040;2023-08-20T02:38:38;24.00;57.50
61398;DHT22;47267;48.130;-2.040;2023-08-20T02:41:04;24.00;57.50
61398;DHT22;47267;48.130;-2.040;2023-08-20T02:43:30;24.00;57.50
61398;DHT22;47267;48.130;-2.040;2023-08-20T02:45:55;24.00;57.50
61398;DHT22;47267;48.130;-2.040;2023-08-20T02:48:21;24.00;57.50
61398;DHT22;47267;48.130;-2.040;2023-08-20T02:50:47;24.00;57.50
61398;DHT22;47267;48.130;-2.040;2023-08-20T02:53:12;24.00;57.50
61398;DHT22;47267;48.130;-2.040;2023-08-20T02:55:39;24.00;57.50
61398;DHT22;47267;48.130;-2.040;2023-08-20T02:58:04;23.90;57.50
61398;DHT22;47267;48.130;-2.040;2023-08-20T03:00:33;23.90;57.50
61398;DHT22;47267;48.130;-2.040;2023-08-20T03:02:58;23.90;57.40
61398;DHT22;47267;48.130;-2.040;2023-08-20T03:05:24;23.90;57.50
61398;DHT22;47267;48.130;-2.040;2023-08-20T03:07:50;23.90;57.50
61398;DHT22;47267;48.130;-2.040;2023-08-20T03:10:16;23.90;57.50
61398;DHT22;47267;48.130;-2.040;2023-08-20T03:12:42;23.90;57.60
61398;DHT22;47267;48.130;-2.040;2023-08-20T03:15:08;23.90;57.50
61398;DHT22;47267;48.130;-2.040;2023-08-20T03:17:33;23.90;57.50
61398;DHT22;47267;48.130;-2.040;2023-08-20T03:20:00;23.90;57.50
61398;DHT22;47267;48.130;-2.040;2023-08-20T03:22:26;23.80;57.40
61398;DHT22;47267;48.130;-2.040;2023-08-20T03:24:53;23.80;57.40
61398;DHT22;47267;48.130;-2.040;2023-08-20T03:27:19;23.80;57.50
61398;DHT22;47267;48.130;-2.040;2023-08-20T03:29:45;23.80;57.50
61398;DHT22;47267;48.130;-2.040;2023-08-20T03:32:11;23.80;57.50
61398;DHT22;47267;48.130;-2.040;2023-08-20T03:34:37;23.80;57.50
61398;DHT22;47267;48.130;-2.040;2023-08-20T03:37:04;23.80;57.50
61398;DHT22;47267;48.130;-2.040;2023-08-20T03:39:30;23.80;57.50
61398;DHT22;47267;48.130;-2.040;2023-08-20T03:41:56;23.80;57.50
61398;DHT22;47267;48.130;-2.040;2023-08-20T03:44:22;23.70;57.40
61398;DHT22;47267;48.130;-2.040;2023-08-20T03:46:48;23.70;57.50
61398;DHT22;47267;48.130;-2.040;2023-08-20T03:49:14;23.70;57.40
61398;DHT22;47267;48.130;-2.040;2023-08-20T03:51:39;23.70;57.50
61398;DHT22;47267;48.130;-2.040;2023-08-20T03:54:06;23.70;57.50
61398;DHT22;47267;48.130;-2.040;2023-08-20T03:56:32;23.70;57.50
61398;DHT22;47267;48.130;-2.040;2023-08-20T03:58:57;23.70;57.50
61398;DHT22;47267;48.130;-2.040;2023-08-20T04:01:23;23.70;57.40
61398;DHT22;47267;48.130;-2.040;2023-08-20T04:03:49;23.70;57.50
61398;DHT22;47267;48.130;-2.040;2023-08-20T04:06:14;23.70;57.50
61398;DHT22;47267;48.130;-2.040;2023-08-20T04:08:40;23.70;57.50
61398;DHT22;47267;48.130;-2.040;2023-08-20T04:11:06;23.70;57.50
61398;DHT22;47267;48.130;-2.040;2023-08-20T04:13:32;23.60;57.50
61398;DHT22;47267;48.130;-2.040;2023-08-20T04:15:58;23.60;57.40
61398;DHT22;47267;48.130;-2.040;2023-08-20T04:18:23;23.60;57.40
61398;DHT22;47267;48.130;-2.040;2023-08-20T04:20:53;23.60;57.50
61398;DHT22;47267;48.130;-2.040;2023-08-20T04:23:19;23.60;57.50
61398;DHT22;47267;48.130;-2.040;2023-08-20T04:25:45;23.60;57.50
61398;DHT22;47267;48.130;-2.040;2023-08-20T04:28:14;23.60;57.50
61398;DHT22;47267;48.130;-2.040;2023-08-20T04:30:40;23.60;57.50
61398;DHT22;47267;48.130;-2.040;2023-08-20T04:33:05;23.60;57.50
61398;DHT22;47267;48.130;-2.040;2023-08-20T04:35:31;23.50;57.50
61398;DHT22;47267;48.130;-2.040;2023-08-20T04:37:57;23.50;57.50
61398;DHT22;47267;48.130;-2.040;2023-08-20T04:40:23;23.50;57.50
61398;DHT22;47267;48.130;-2.040;2023-08-20T04:42:49;23.50;57.50
61398;DHT22;47267;48.130;-2.040;2023-08-20T04:45:15;23.50;57.50
61398;DHT22;47267;48.130;-2.040;2023-08-20T04:47:43;23.50;57.50
61398;DHT22;47267;48.130;-2.040;2023-08-20T04:50:09;23.50;57.50
61398;DHT22;47267;48.130;-2.040;2023-08-20T04:52:35;23.50;57.50
61398;DHT22;47267;48.130;-2.040;2023-08-20T04:55:01;23.50;57.50
61398;DHT22;47267;48.130;-2.040;2023-08-20T04:57:27;23.50;57.60
61398;DHT22;47267;48.130;-2.040;2023-08-20T04:59:52;23.50;57.60
61398;DHT22;47267;48.130;-2.040;2023-08-20T05:02:18;23.50;57.60
61398;DHT22;47267;48.130;-2.040;2023-08-20T05:04:44;23.50;57.60
61398;DHT22;47267;48.130;-2.040;2023-08-20T05:07:09;23.40;57.50
61398;DHT22;47267;48.130;-2.040;2023-08-20T05:09:35;23.40;57.50
61398;DHT22;47267;48.130;-2.040;2023-08-20T05:12:01;23.40;57.50
61398;DHT22;47267;48.130;-2.040;2023-08-20T05:14:28;23.40;57.60
61398;DHT22;47267;48.130;-2.040;2023-08-20T05:16:54;23.40;57.50
61398;DHT22;47267;48.130;-2.040;2023-08-20T05:19:20;23.40;57.50
61398;DHT22;47267;48.130;-2.040;2023-08-20T05:21:45;23.40;57.60
61398;DHT22;47267;48.130;-2.040;2023-08-20T05:24:11;23.40;57.60
61398;DHT22;47267;48.130;-2.040;2023-08-20T05:26:37;23.40;57.60
61398;DHT22;47267;48.130;-2.040;2023-08-20T05:29:03;23.40;57.60
61398;DHT22;47267;48.130;-2.040;2023-08-20T05:31:28;23.40;57.60
61398;DHT22;47267;48.130;-2.040;2023-08-20T05:33:54;23.40;57.60
61398;DHT22;47267;48.130;-2.040;2023-08-20T05:36:20;23.30;57.60
61398;DHT22;47267;48.130;-2.040;2023-08-20T05:38:45;23.30;57.60
61398;DHT22;47267;48.130;-2.040;2023-08-20T05:41:11;23.30;57.60
61398;DHT22;47267;48.130;-2.040;2023-08-20T05:43:37;23.30;57.60
61398;DHT22;47267;48.130;-2.040;2023-08-20T05:46:03;23.30;57.60
61398;DHT22;47267;48.130;-2.040;2023-08-20T05:48:28;23.30;57.60
61398;DHT22;47267;48.130;-2.040;2023-08-20T05:50:55;23.30;57.60
61398;DHT22;47267;48.130;-2.040;2023-08-20T05:53:22;23.30;57.60
61398;DHT22;47267;48.130;-2.040;2023-08-20T05:55:49;23.30;57.60
61398;DHT22;47267;48.130;-2.040;2023-08-20T05:58:14;23.30;57.60
61398;DHT22;47267;48.130;-2.040;2023-08-20T06:00:40;23.30;57.70
61398;DHT22;47267;48.130;-2.040;2023-08-20T06:03:06;23.30;57.70
61398;DHT22;47267;48.130;-2.040;2023-08-20T06:05:35;23.30;57.70
61398;DHT22;47267;48.130;-2.040;2023-08-20T06:08:00;23.20;57.60
61398;DHT22;47267;48.130;-2.040;2023-08-20T06:10:26;23.30;57.70
61398;DHT22;47267;48.130;-2.040;2023-08-20T06:12:52;23.20;57.60
61398;DHT22;47267;48.130;-2.040;2023-08-20T06:15:18;23.20;57.60
61398;DHT22;47267;48.130;-2.040;2023-08-20T06:17:44;23.20;57.60
61398;DHT22;47267;48.130;-2.040;2023-08-20T06:20:10;23.20;57.70
61398;DHT22;47267;48.130;-2.040;2023-08-20T06:22:37;23.20;57.70
61398;DHT22;47267;48.130;-2.040;2023-08-20T06:25:04;23.20;57.70
61398;DHT22;47267;48.130;-2.040;2023-08-20T06:27:30;23.20;57.70
61398;DHT22;47267;48.130;-2.040;2023-08-20T06:29:56;23.20;57.70
61398;DHT22;47267;48.130;-2.040;2023-08-20T06:32:22;23.20;57.70
61398;DHT22;47267;48.130;-2.040;2023-08-20T06:34:48;23.20;57.70
61398;DHT22;47267;48.130;-2.040;2023-08-20T06:37:14;23.10;57.70
61398;DHT22;47267;48.130;-2.040;2023-08-20T06:39:39;23.10;57.70
61398;DHT22;47267;48.130;-2.040;2023-08-20T06:42:05;23.10;57.70
61398;DHT22;47267;48.130;-2.040;2023-08-20T06:44:31;23.10;57.70
61398;DHT22;47267;48.130;-2.040;2023-08-20T06:46:56;23.10;57.70
61398;DHT22;47267;48.130;-2.040;2023-08-20T06:49:22;23.10;57.70
61398;DHT22;47267;48.130;-2.040;2023-08-20T06:51:48;23.10;57.70
61398;DHT22;47267;48.130;-2.040;2023-08-20T06:54:15;23.10;57.70
61398;DHT22;47267;48.130;-2.040;2023-08-20T06:56:43;23.10;57.70
61398;DHT22;47267;48.130;-2.040;2023-08-20T06:59:09;23.10;57.70
61398;DHT22;47267;48.130;-2.040;2023-08-20T07:01:36;23.10;57.80
61398;DHT22;47267;48.130;-2.040;2023-08-20T07:04:01;23.10;57.70
61398;DHT22;47267;48.130;-2.040;2023-08-20T07:06:27;23.10;57.80
61398;DHT22;47267;48.130;-2.040;2023-08-20T07:08:53;23.00;57.70
61398;DHT22;47267;48.130;-2.040;2023-08-20T07:11:19;23.00;57.80
61398;DHT22;47267;48.130;-2.040;2023-08-20T07:13:44;23.00;57.70
61398;DHT22;47267;48.130;-2.040;2023-08-20T07:16:11;23.00;57.70
61398;DHT22;47267;48.130;-2.040;2023-08-20T07:18:36;23.00;57.80
61398;DHT22;47267;48.130;-2.040;2023-08-20T07:21:02;23.00;57.80
61398;DHT22;47267;48.130;-2.040;2023-08-20T07:23:28;23.00;57.80
61398;DHT22;47267;48.130;-2.040;2023-08-20T07:26:08;23.00;57.80
61398;DHT22;47267;48.130;-2.040;2023-08-20T07:28:34;23.00;57.80
61398;DHT22;47267;48.130;-2.040;2023-08-20T07:31:19;23.00;57.80
61398;DHT22;47267;48.130;-2.040;2023-08-20T07:33:49;23.00;57.90
61398;DHT22;47267;48.130;-2.040;2023-08-20T07:36:15;23.00;57.90
61398;DHT22;47267;48.130;-2.040;2023-08-20T07:38:41;23.00;57.90
61398;DHT22;47267;48.130;-2.040;2023-08-20T07:41:11;23.00;57.90
61398;DHT22;47267;48.130;-2.040;2023-08-20T07:43:40;23.00;57.90
61398;DHT22;47267;48.130;-2.040;2023-08-20T07:46:07;23.00;58.50
61398;DHT22;47267;48.130;-2.040;2023-08-20T07:48:34;23.00;58.00
61398;DHT22;47267;48.130;-2.040;2023-08-20T07:51:02;23.00;57.90
61398;DHT22;47267;48.130;-2.040;2023-08-20T07:53:28;23.00;58.00
61398;DHT22;47267;48.130;-2.040;2023-08-20T07:55:55;23.00;58.00
61398;DHT22;47267;48.130;-2.040;2023-08-20T07:58:20;23.00;58.00
61398;DHT22;47267;48.130;-2.040;2023-08-20T08:00:46;23.00;58.00
61398;DHT22;47267;48.130;-2.040;2023-08-20T08:03:12;23.00;58.00
61398;DHT22;47267;48.130;-2.040;2023-08-20T08:05:40;23.00;58.10
61398;DHT22;47267;48.130;-2.040;2023-08-20T08:08:06;22.90;58.00
61398;DHT22;47267;48.130;-2.040;2023-08-20T08:10:32;22.90;58.00
61398;DHT22;47267;48.130;-2.040;2023-08-20T08:12:57;22.90;58.10
61398;DHT22;47267;48.130;-2.040;2023-08-20T08:15:23;23.00;58.10
61398;DHT22;47267;48.130;-2.040;2023-08-20T08:17:48;23.00;58.10
61398;DHT22;47267;48.130;-2.040;2023-08-20T08:20:14;23.00;58.10
61398;DHT22;47267;48.130;-2.040;2023-08-20T08:22:40;22.90;58.10
61398;DHT22;47267;48.130;-2.040;2023-08-20T08:25:06;22.90;58.10
61398;DHT22;47267;48.130;-2.040;2023-08-20T08:27:31;22.90;58.10
61398;DHT22;47267;48.130;-2.040;2023-08-20T08:29:57;22.90;58.10
61398;DHT22;47267;48.130;-2.040;2023-08-20T08:32:23;22.90;58.20
61398;DHT22;47267;48.130;-2.040;2023-08-20T08:34:50;22.90;58.20
61398;DHT22;47267;48.130;-2.040;2023-08-20T08:37:15;22.90;58.20
61398;DHT22;47267;48.130;-2.040;2023-08-20T08:39:41;22.90;58.20
61398;DHT22;47267;48.130;-2.040;2023-08-20T08:42:07;22.90;58.30
61398;DHT22;47267;48.130;-2.040;2023-08-20T08:44:37;22.90;58.30
61398;DHT22;47267;48.130;-2.040;2023-08-20T08:47:04;22.90;58.30
61398;DHT22;47267;48.130;-2.040;2023-08-20T08:49:33;22.90;58.30
61398;DHT22;47267;48.130;-2.040;2023-08-20T08:51:59;22.90;58.90
61398;DHT22;47267;48.130;-2.040;2023-08-20T08:54:26;22.90;58.30
61398;DHT22;47267;48.130;-2.040;2023-08-20T08:56:52;22.90;58.50
61398;DHT22;47267;48.130;-2.040;2023-08-20T08:59:19;22.90;58.50
61398;DHT22;47267;48.130;-2.040;2023-08-20T09:01:44;22.90;58.50
61398;DHT22;47267;48.130;-2.040;2023-08-20T09:04:10;22.90;58.50
61398;DHT22;47267;48.130;-2.040;2023-08-20T09:06:47;22.90;58.50
61398;DHT22;47267;48.130;-2.040;2023-08-20T09:09:13;22.90;58.60
61398;DHT22;47267;48.130;-2.040;2023-08-20T09:11:39;22.90;58.60
61398;DHT22;47267;48.130;-2.040;2023-08-20T09:14:05;22.90;58.60
61398;DHT22;47267;48.130;-2.040;2023-08-20T09:16:31;22.90;58.60
61398;DHT22;47267;48.130;-2.040;2023-08-20T09:18:59;22.90;58.70
61398;DHT22;47267;48.130;-2.040;2023-08-20T09:21:29;23.00;58.70
61398;DHT22;47267;48.130;-2.040;2023-08-20T09:23:55;23.00;58.80
61398;DHT22;47267;48.130;-2.040;2023-08-20T09:26:22;22.90;58.80
61398;DHT22;47267;48.130;-2.040;2023-08-20T09:28:47;23.00;58.80
61398;DHT22;47267;48.130;-2.040;2023-08-20T09:31:14;23.00;58.80
61398;DHT22;47267;48.130;-2.040;2023-08-20T09:33:53;23.00;58.90
61398;DHT22;47267;48.130;-2.040;2023-08-20T09:36:28;23.00;58.90
61398;DHT22;47267;48.130;-2.040;2023-08-20T09:38:54;23.00;58.90
61398;DHT22;47267;48.130;-2.040;2023-08-20T09:41:22;23.00;58.90
61398;DHT22;47267;48.130;-2.040;2023-08-20T09:43:48;23.00;58.90
61398;DHT22;47267;48.130;-2.040;2023-08-20T09:46:21;23.00;59.00
61398;DHT22;47267;48.130;-2.040;2023-08-20T09:48:48;23.00;59.00
61398;DHT22;47267;48.130;-2.040;2023-08-20T09:51:19;23.00;59.10
61398;DHT22;47267;48.130;-2.040;2023-08-20T09:56:27;23.00;59.00
61398;DHT22;47267;48.130;-2.040;2023-08-20T09:59:00;23.00;59.00
61398;DHT22;47267;48.130;-2.040;2023-08-20T10:01:27;23.00;59.00
61398;DHT22;47267;48.130;-2.040;2023-08-20T10:03:53;23.00;59.10
61398;DHT22;47267;48.130;-2.040;2023-08-20T10:06:20;23.00;59.00
61398;DHT22;47267;48.130;-2.040;2023-08-20T10:08:46;23.00;59.10
61398;DHT22;47267;48.130;-2.040;2023-08-20T10:11:12;23.00;59.10
61398;DHT22;47267;48.130;-2.040;2023-08-20T10:13:39;23.00;59.10
61398;DHT22;47267;48.130;-2.040;2023-08-20T10:16:04;23.00;59.10
61398;DHT22;47267;48.130;-2.040;2023-08-20T10:18:30;23.00;59.20
61398;DHT22;47267;48.130;-2.040;2023-08-20T10:20:59;23.00;59.10
61398;DHT22;47267;48.130;-2.040;2023-08-20T10:23:26;23.00;59.20
61398;DHT22;47267;48.130;-2.040;2023-08-20T10:25:52;23.00;59.20
61398;DHT22;47267;48.130;-2.040;2023-08-20T10:28:24;23.00;59.20
61398;DHT22;47267;48.130;-2.040;2023-08-20T10:31:09;23.00;59.20
61398;DHT22;47267;48.130;-2.040;2023-08-20T10:33:38;23.00;59.20
61398;DHT22;47267;48.130;-2.040;2023-08-20T10:36:17;23.00;59.20
61398;DHT22;47267;48.130;-2.040;2023-08-20T10:38:45;23.00;59.20
61398;DHT22;47267;48.130;-2.040;2023-08-20T10:41:11;23.00;59.20
61398;DHT22;47267;48.130;-2.040;2023-08-20T10:43:46;23.00;59.20
61398;DHT22;47267;48.130;-2.040;2023-08-20T10:46:21;23.00;59.20
61398;DHT22;47267;48.130;-2.040;2023-08-20T10:48:55;23.00;59.20
61398;DHT22;47267;48.130;-2.040;2023-08-20T10:51:27;23.00;59.20
61398;DHT22;47267;48.130;-2.040;2023-08-20T10:54:08;23.00;59.20
61398;DHT22;47267;48.130;-2.040;2023-08-20T10:59:14;23.00;59.20
61398;DHT22;47267;48.130;-2.040;2023-08-20T11:01:43;23.00;59.20
61398;DHT22;47267;48.130;-2.040;2023-08-20T11:04:10;23.00;59.20
61398;DHT22;47267;48.130;-2.040;2023-08-20T11:06:36;23.00;59.30
61398;DHT22;47267;48.130;-2.040;2023-08-20T11:09:02;23.00;59.20
61398;DHT22;47267;48.130;-2.040;2023-08-20T11:11:31;23.00;59.20
61398;DHT22;47267;48.130;-2.040;2023-08-20T11:14:03;23.00;59.20
61398;DHT22;47267;48.130;-2.040;2023-08-20T11:16:29;23.00;59.20
61398;DHT22;47267;48.130;-2.040;2023-08-20T11:18:57;23.00;59.30
61398;DHT22;47267;48.130;-2.040;2023-08-20T11:21:23;23.00;59.30
61398;DHT22;47267;48.130;-2.040;2023-08-20T11:23:48;23.00;59.30
61398;DHT22;47267;48.130;-2.040;2023-08-20T11:26:14;23.00;59.30
61398;DHT22;47267;48.130;-2.040;2023-08-20T11:28:45;23.00;59.30
61398;DHT22;47267;48.130;-2.040;2023-08-20T11:31:11;23.00;59.30
61398;DHT22;47267;48.130;-2.040;2023-08-20T11:33:36;23.00;59.30
61398;DHT22;47267;48.130;-2.040;2023-08-20T11:36:02;23.00;59.30
61398;DHT22;47267;48.130;-2.040;2023-08-20T11:38:29;23.00;59.30
61398;DHT22;47267;48.130;-2.040;2023-08-20T11:40:57;23.00;59.30
61398;DHT22;47267;48.130;-2.040;2023-08-20T11:43:23;23.00;59.30
61398;DHT22;47267;48.130;-2.040;2023-08-20T11:45:49;23.00;59.30
61398;DHT22;47267;48.130;-2.040;2023-08-20T11:48:16;23.00;59.30
61398;DHT22;47267;48.130;-2.040;2023-08-20T11:50:42;23.00;59.30
61398;DHT22;47267;48.130;-2.040;2023-08-20T11:53:09;23.00;59.30
61398;DHT22;47267;48.130;-2.040;2023-08-20T11:55:35;23.00;59.30
61398;DHT22;47267;48.130;-2.040;2023-08-20T11:58:01;23.00;59.30
61398;DHT22;47267;48.130;-2.040;2023-08-20T12:00:28;23.00;59.30
61398;DHT22;47267;48.130;-2.040;2023-08-20T12:02:54;23.10;59.30
61398;DHT22;47267;48.130;-2.040;2023-08-20T12:05:30;23.00;59.30
61398;DHT22;47267;48.130;-2.040;2023-08-20T12:07:59;23.10;59.30
61398;DHT22;47267;48.130;-2.040;2023-08-20T12:10:26;23.10;59.30
61398;DHT22;47267;48.130;-2.040;2023-08-20T12:12:52;23.00;59.20
61398;DHT22;47267;48.130;-2.040;2023-08-20T12:15:19;23.10;59.30
61398;DHT22;47267;48.130;-2.040;2023-08-20T12:20:22;23.10;59.20
61398;DHT22;47267;48.130;-2.040;2023-08-20T12:22:48;23.10;59.20
61398;DHT22;47267;48.130;-2.040;2023-08-20T12:25:14;23.10;59.20
61398;DHT22;47267;48.130;-2.040;2023-08-20T12:27:41;23.10;59.20
61398;DHT22;47267;48.130;-2.040;2023-08-20T12:30:07;23.10;59.20
61398;DHT22;47267;48.130;-2.040;2023-08-20T12:32:33;23.10;59.20
61398;DHT22;47267;48.130;-2.040;2023-08-20T12:34:58;23.10;59.20
61398;DHT22;47267;48.130;-2.040;2023-08-20T12:37:24;23.10;59.20
61398;DHT22;47267;48.130;-2.040;2023-08-20T12:39:50;23.10;59.20
61398;DHT22;47267;48.130;-2.040;2023-08-20T12:42:17;23.10;59.20
61398;DHT22;47267;48.130;-2.040;2023-08-20T12:44:44;23.10;59.10
61398;DHT22;47267;48.130;-2.040;2023-08-20T12:47:09;23.10;59.10
61398;DHT22;47267;48.130;-2.040;2023-08-20T12:49:35;23.10;59.10
61398;DHT22;47267;48.130;-2.040;2023-08-20T12:52:00;23.10;59.10
61398;DHT22;47267;48.130;-2.040;2023-08-20T12:54:26;23.10;59.10
61398;DHT22;47267;48.130;-2.040;2023-08-20T12:56:52;23.10;59.10
61398;DHT22;47267;48.130;-2.040;2023-08-20T12:59:17;23.20;59.20
61398;DHT22;47267;48.130;-2.040;2023-08-20T13:01:44;23.10;59.00
61398;DHT22;47267;48.130;-2.040;2023-08-20T13:04:10;23.20;59.10
61398;DHT22;47267;48.130;-2.040;2023-08-20T13:06:37;23.20;59.10
61398;DHT22;47267;48.130;-2.040;2023-08-20T13:09:03;23.20;59.10
61398;DHT22;47267;48.130;-2.040;2023-08-20T13:11:29;23.20;59.10
61398;DHT22;47267;48.130;-2.040;2023-08-20T13:13:56;23.20;59.10
61398;DHT22;47267;48.130;-2.040;2023-08-20T13:16:23;23.20;59.10
61398;DHT22;47267;48.130;-2.040;2023-08-20T13:18:49;23.20;59.10
61398;DHT22;47267;48.130;-2.040;2023-08-20T13:21:14;23.20;59.10
61398;DHT22;47267;48.130;-2.040;2023-08-20T13:23:40;23.30;59.10
61398;DHT22;47267;48.130;-2.040;2023-08-20T13:26:06;23.20;59.10
61398;DHT22;47267;48.130;-2.040;2023-08-20T13:28:32;23.30;59.10
61398;DHT22;47267;48.130;-2.040;2023-08-20T13:30:58;23.30;59.10
61398;DHT22;47267;48.130;-2.040;2023-08-20T13:33:24;23.30;59.10
61398;DHT22;47267;48.130;-2.040;2023-08-20T13:35:49;23.30;59.10
61398;DHT22;47267;48.130;-2.040;2023-08-20T13:38:15;23.30;59.10
61398;DHT22;47267;48.130;-2.040;2023-08-20T13:40:41;23.30;59.00
61398;DHT22;47267;48.130;-2.040;2023-08-20T13:43:06;23.30;59.00
61398;DHT22;47267;48.130;-2.040;2023-08-20T13:45:34;23.30;59.00
61398;DHT22;47267;48.130;-2.040;2023-08-20T13:48:00;23.30;59.00
61398;DHT22;47267;48.130;-2.040;2023-08-20T13:50:26;23.30;59.00
61398;DHT22;47267;48.130;-2.040;2023-08-20T13:52:51;23.40;59.00
61398;DHT22;47267;48.130;-2.040;2023-08-20T13:55:17;23.40;59.00
61398;DHT22;47267;48.130;-2.040;2023-08-20T13:57:43;23.40;59.00
61398;DHT22;47267;48.130;-2.040;2023-08-20T14:00:09;23.30;58.90
61398;DHT22;47267;48.130;-2.040;2023-08-20T14:02:38;23.40;59.00
61398;DHT22;47267;48.130;-2.040;2023-08-20T14:05:04;23.40;58.90
61398;DHT22;47267;48.130;-2.040;2023-08-20T14:07:30;23.40;59.50
61398;DHT22;47267;48.130;-2.040;2023-08-20T14:09:56;23.40;58.90
61398;DHT22;47267;48.130;-2.040;2023-08-20T14:12:22;23.40;58.80
61398;DHT22;47267;48.130;-2.040;2023-08-20T14:14:47;23.40;58.80
61398;DHT22;47267;48.130;-2.040;2023-08-20T14:17:13;23.40;58.80
61398;DHT22;47267;48.130;-2.040;2023-08-20T14:19:39;23.40;58.80
61398;DHT22;47267;48.130;-2.040;2023-08-20T14:22:04;23.40;58.70
61398;DHT22;47267;48.130;-2.040;2023-08-20T14:24:30;23.40;58.60
61398;DHT22;47267;48.130;-2.040;2023-08-20T14:26:56;23.40;58.70
61398;DHT22;47267;48.130;-2.040;2023-08-20T14:29:21;23.40;59.20
61398;DHT22;47267;48.130;-2.040;2023-08-20T14:31:47;23.40;58.60
61398;DHT22;47267;48.130;-2.040;2023-08-20T14:34:13;23.50;58.60
61398;DHT22;47267;48.130;-2.040;2023-08-20T14:36:38;23.50;58.70
61398;DHT22;47267;48.130;-2.040;2023-08-20T14:39:06;23.50;58.60
61398;DHT22;47267;48.130;-2.040;2023-08-20T14:41:31;23.50;58.60
61398;DHT22;47267;48.130;-2.040;2023-08-20T14:43:57;23.50;58.60
61398;DHT22;47267;48.130;-2.040;2023-08-20T14:46:22;23.50;58.60
61398;DHT22;47267;48.130;-2.040;2023-08-20T14:48:48;23.50;58.50
61398;DHT22;47267;48.130;-2.040;2023-08-20T14:51:14;23.50;58.50
61398;DHT22;47267;48.130;-2.040;2023-08-20T14:53:39;23.50;58.50
61398;DHT22;47267;48.130;-2.040;2023-08-20T14:56:05;23.60;58.50
61398;DHT22;47267;48.130;-2.040;2023-08-20T14:58:31;23.60;59.10
61398;DHT22;47267;48.130;-2.040;2023-08-20T15:00:57;23.60;58.40
61398;DHT22;47267;48.130;-2.040;2023-08-20T15:03:22;23.60;58.40
61398;DHT22;47267;48.130;-2.040;2023-08-20T15:05:48;23.60;58.40
61398;DHT22;47267;48.130;-2.040;2023-08-20T15:08:14;23.60;58.30
61398;DHT22;47267;48.130;-2.040;2023-08-20T15:10:39;23.60;58.30
61398;DHT22;47267;48.130;-2.040;2023-08-20T15:13:05;23.70;58.40
61398;DHT22;47267;48.130;-2.040;2023-08-20T15:15:31;23.70;58.40
61398;DHT22;47267;48.130;-2.040;2023-08-20T15:17:57;23.60;58.20
61398;DHT22;47267;48.130;-2.040;2023-08-20T15:20:23;23.70;58.30
61398;DHT22;47267;48.130;-2.040;2023-08-20T15:22:49;23.70;58.30
61398;DHT22;47267;48.130;-2.040;2023-08-20T15:25:15;23.70;58.20
61398;DHT22;47267;48.130;-2.040;2023-08-20T15:27:40;23.70;58.20